Nearby METAR Reports

 

KVCT - Victoria, Texas, USA
Distance from station: E 12mi, 20km
Updated: 09/18/2018 8:51am
Fog, Overcast
Fog, Overcast
 Wind from calm
Wind: Calm
Temperature: 77°F , 25°C
Dew Point: 75°F , 24°C
Humidity: 94%
Barometer: 30.01 inHg , 1016.3 hPa
Summary: Fog
Clouds: Overcast
Visibility: 1/4 mile , 0.4 km
Cloud details: Overcast 200 ft
2018/09/18 13:51 KVCT 181351Z 00000KT 1/4SM FG VV002 25/24 A3001 RMK AO2 SLP161 T02500244
KPKV - Port Lavaca, Texas, USA
Distance from station: ESE 31mi, 50km
Updated: 09/18/2018 8:55am
Fog, Overcast
Fog, Overcast
 Wind from calm
Wind: Calm
Temperature: 79°F , 26°C
Dew Point: 77°F , 25°C
Humidity: 94%
Barometer: 30.01 inHg , 1016.3 hPa
Summary: Fog
Clouds: Overcast
Visibility: 1/4 mile , 0.4 km
Cloud details: Overcast 100 ft
2018/09/18 13:55 KPKV 181355Z AUTO 00000KT 1/4SM FG OVC001 26/25 A3001 RMK AO2 T02560247
 
KT20 - Gonzales Muni, Texas, USA
Distance from station: NNW 50mi, 81km
Updated: 09/18/2018 8:55am
Mist, Overcast
Mist, Overcast
 Wind from calm
Wind: Calm
Temperature: 77°F , 25°C
Dew Point: 77°F , 25°C
Humidity: 100%
Barometer: 30.02 inHg , 1016.6 hPa
Summary: Mist
Clouds: Overcast
Visibility: 2 miles , 3 km
Cloud details: Overcast 200 ft
2018/09/18 13:55 KT20 181355Z AUTO 00000KT 2SM BR OVC002 25/25 A3002 RMK AO2 T02520252
KBEA - Beeville Muni, Texas, USA
Distance from station: SW 51mi, 83km
Updated: 09/18/2018 8:55am
Mist, Overcast
Mist, Overcast
 Wind from calm
Wind: Calm
Temperature: 77°F , 25°C
Dew Point: 77°F , 25°C
Humidity: 100%
Barometer: 30.01 inHg , 1016.3 hPa
Summary: Mist
Clouds: Overcast
Visibility: 3/4 mile , 1.2 km
Cloud details: Overcast 100 ft
2018/09/18 13:55 KBEA 181355Z AUTO 00000KT 3/4SM BR OVC001 25/25 A3001 RMK AO2 T02500250
 
KRKP - Rockport, Texas, USA
Distance from station: S 53mi, 86km
Updated: 09/18/2018 8:53am
Mist, Clear
Mist, Clear
 Wind from calm
Wind: Calm
Temperature: 82°F , 28°C
Heat Index: 91°F , 33°C
Dew Point: 79°F , 26°C
Humidity: 89%
Barometer: 29.99 inHg , 1015.6 hPa
Summary: Mist
Clouds: Clear
Visibility: 6 miles , 10 km
2018/09/18 13:53 KRKP 181353Z AUTO 00000KT 6SM BR CLR 28/26 A2999 RMK AO2 SLP156 T02780256
KPSX - Palacios, Texas, USA
Distance from station: E 55mi, 88km
Updated: 09/18/2018 8:53am
Few Clouds
Few Clouds
 Wind from calm
Wind: Calm
Temperature: 82°F , 28°C
Heat Index: 95°F , 35°C
Dew Point: 82°F , 28°C
Humidity: 100%
Barometer: 30.00 inHg , 1015.9 hPa
Clouds: Few Clouds
Visibility: 7 miles , 11 km
Cloud details: Few Clouds 300 ft
2018/09/18 13:53 KPSX 181353Z AUTO 00000KT 7SM FEW003 28/28 A3000 RMK AO2 SLP159 T02780278
 
KTFP - Ingleside/Tp Mcc, Texas, USA
Distance from station: S 65mi, 104km
Updated: 09/18/2018 8:55am
Partly cloudy
Partly cloudy
 Wind from calm
Wind: Calm
Temperature: 84°F , 29°C
Heat Index: 96°F , 36°C
Dew Point: 79°F , 26°C
Humidity: 84%
Barometer: 29.99 inHg , 1015.6 hPa
Clouds: Partly cloudy
Visibility: 10 miles , 16 km
Cloud details: Partly cloudy 1200 ft
Partly cloudy 1800 ft
2018/09/18 13:55 KTFP 181355Z AUTO 00000KT 10SM SCT012 SCT018 29/26 A2999 RMK AO2 T02880259 PNO
K66R - Columbus, Texas, USA
Distance from station: NE 66mi, 106km
Updated: 09/18/2018 8:55am
Overcast
Overcast
 Wind from WNW
Wind: WNW 5 mph , 7 km/h
Temperature: 77°F , 25°C
Dew Point: 73°F , 23°C
Humidity: 89%
Barometer: 30.03 inHg , 1016.9 hPa
Clouds: Overcast
Visibility: 10 miles , 16 km
Cloud details: Overcast 500 ft
2018/09/18 13:55 K66R 181355Z AUTO 30004KT 10SM OVC005 25/23 A3003 RMK AO2 T02480228
 
KARM - Wharton, Texas, USA
Distance from station: ENE 66mi, 106km
Updated: 09/18/2018 8:55am

 Wind from calm
Wind: Calm
Temperature: 77°F , 25°C
Dew Point: 77°F , 25°C
Humidity: 100%
Barometer: 30.02 inHg , 1016.6 hPa
Visibility: 10 miles , 16 km
2018/09/18 13:55 KARM 181355Z AUTO 00000KT 10SM 25/25 A3002 RMK AO2 T02530246 PWINO
KRAS - Port Aransas, Texas, USA
Distance from station: S 71mi, 115km
Updated: 09/15/2018 9:55am
NOT Current
Light rain, Overcast
Light rain, Overcast
 Wind from SSE
Wind: SSE 18 mph , 30 km/h, Gust: 25 mph , 41 km/h
Temperature: 79°F , 26°C
Dew Point: 75°F , 24°C
Humidity: 89%
Barometer: 29.91 inHg , 1012.9 hPa
Summary: Light rain
Clouds: Overcast
Visibility: 10 miles , 16 km
Cloud details: Mostly cloudy 1100 ft
Mostly cloudy 2700 ft
Overcast 11000 ft
2018/09/15 14:55 KRAS 151455Z AUTO 15016G22KT 10SM -RA BKN011 BKN027 OVC110 26/24 A2991 RMK AO2 P0003 T02560238 60054
 
KELA - Eagle Lake, Texas, USA
Distance from station: NE 72mi, 115km
Updated: 09/18/2018 8:55am
Clear
Clear
 Wind from WNW
Wind: WNW 3 mph , 6 km/h
Temperature: 81°F , 27°C
Heat Index: 89°F , 32°C
Dew Point: 79°F , 26°C
Humidity: 94%
Barometer: 30.01 inHg , 1016.3 hPa
Clouds: Clear
Visibility: 10 miles , 16 km
2018/09/18 13:55 KELA 181355Z AUTO 29003KT 10SM CLR 27/26 A3001 RMK AO2 T02660255
K3T5 - La Grange, Texas, USA
Distance from station: N 73mi, 118km
Updated: 09/18/2018 8:55am
Mist, Overcast
Mist, Overcast
 Wind from W
Wind: W 3 mph , 6 km/h
Temperature: 79°F , 26°C
Dew Point: 79°F , 26°C
Humidity: 100%
Barometer: 30.00 inHg , 1015.9 hPa
Summary: Mist
Clouds: Overcast
Visibility: 5 miles , 8 km
Cloud details: Overcast 300 ft
2018/09/18 13:55 K3T5 181355Z AUTO 27003KT 5SM BR OVC003 26/26 A3000 RMK AO2 T02550255
 
KBYY - Bay City, Texas, USA
Distance from station: E 77mi, 124km
Updated: 09/18/2018 8:55am
Clear
Clear
 Wind from calm
Wind: Calm
Temperature: 79°F , 26°C
Dew Point: 79°F , 26°C
Humidity: 100%
Barometer: 30.00 inHg , 1015.9 hPa
Clouds: Clear
Visibility: 10 miles , 16 km
2018/09/18 13:55 KBYY 181355Z AUTO 00000KT 10SM CLR 26/26 A3000 RMK AO2 T02580258
KCRP - Corpus Christi, Texas, USA
Distance from station: SSW 78mi, 126km
Updated: 09/18/2018 8:51am
Mostly cloudy
Mostly cloudy
 Wind from calm
Wind: Calm
Temperature: 82°F , 28°C
Heat Index: 91°F , 33°C
Dew Point: 79°F , 26°C
Humidity: 89%
Barometer: 29.99 inHg , 1015.6 hPa
Clouds: Mostly cloudy
Visibility: 10 miles , 16 km
Cloud details: Few Clouds 1800 ft
Few Clouds 15000 ft
Mostly cloudy 21000 ft
Mostly cloudy 25000 ft
2018/09/18 13:51 KCRP 181351Z 00000KT 10SM FEW018 FEW150 BKN210 BKN250 28/26 A2999 RMK AO2 SLP155 T02780261 $
 
KNGP - C. Christi Nas, Texas, USA
Distance from station: S 81mi, 130km
Updated: 09/18/2018 8:56am
Mostly cloudy
Mostly cloudy
 Wind from calm
Wind: Calm
Temperature: 84°F , 29°C
Heat Index: 96°F , 36°C
Dew Point: 79°F , 26°C
Humidity: 84%
Barometer: 29.99 inHg , 1015.6 hPa
Clouds: Mostly cloudy
Visibility: 10 miles , 16 km
Cloud details: Few Clouds 1800 ft
Mostly cloudy 21000 ft
Mostly cloudy 30000 ft
2018/09/18 13:56 KNGP 181356Z 00000KT 10SM FEW018 BKN210 BKN300 29/26 A2999 RMK AO2 SLP153 T02890256
KRBO - Robstown/Nueces, Texas, USA
Distance from station: SSW 81mi, 130km
Updated: 09/18/2018 8:55am
Clear
Clear
 Wind from calm
Wind: Calm
Temperature: 79°F , 26°C
Dew Point: 77°F , 25°C
Humidity: 94%
Barometer: 29.99 inHg , 1015.6 hPa
Clouds: Clear
Visibility: 7 miles , 11 km
2018/09/18 13:55 KRBO 181355Z AUTO 00000KT 7SM CLR 26/25 A2999 RMK AO2 T02600252
 
KBAZ - New Braunfels, Texas, USA
Distance from station: NW 81mi, 131km
Updated: 09/18/2018 9:01am
Mist, Few clouds
Mist, Few clouds
 Wind from WSW
Wind: WSW 5 mph , 7 km/h
Temperature: 79°F , 26°C
Dew Point: 75°F , 24°C
Humidity: 89%
Barometer: 30.02 inHg , 1016.6 hPa
Summary: Mist
Clouds: Few Clouds
Visibility: 5 miles , 8 km
Cloud details: Few Clouds 1100 ft
2018/09/18 14:01 KBAZ 181401Z 24004KT 5SM BR FEW011 26/24 A3002 RMK AO2 T02560239
KRND - Randolph Afb, Texas, USA
Distance from station: NW 82mi, 132km
Updated: 09/18/2018 8:56am
Overcast
Overcast
 Wind from SW
Wind: SW 3 mph , 6 km/h
Temperature: 77°F , 25°C
Dew Point: 75°F , 24°C
Humidity: 94%
Barometer: 30.04 inHg , 1017.3 hPa
Clouds: Overcast
Visibility: 10 miles , 16 km
Cloud details: Partly cloudy 700 ft
Overcast 2100 ft
2018/09/18 13:56 KRND 181356Z 22003KT 10SM SCT007 OVC021 25/24 A3004 RMK AO2A CIG 019 RWY15R CIG 016 RWY33R SLP165 T02510240 $
 
KHYI - San Marcos, Texas, USA
Distance from station: NNW 84mi, 135km
Updated: 09/18/2018 8:56am
Clear
Clear
 Wind from calm
Wind: Calm
Temperature: 77°F , 25°C
Dew Point: 75°F , 24°C
Humidity: 94%
Barometer: 30.04 inHg , 1017.3 hPa
Clouds: Clear
Visibility: 10 miles , 16 km
2018/09/18 13:56 KHYI 181356Z 00000KT 10SM CLR 25/24 A3004 RMK AO2 SLP161 T02500239 $
KPEZ - Pleasanton Muni, Texas, USA
Distance from station: W 84mi, 135km
Updated: 09/18/2018 8:55am
Mist, Overcast
Mist, Overcast
 Wind from calm
Wind: Calm
Barometer: 30.03 inHg , 1016.9 hPa
Summary: Mist
Clouds: Overcast
Visibility: 3 miles , 5 km
Cloud details: Mostly cloudy 300 ft
Overcast 800 ft
2018/09/18 13:55 KPEZ 181355Z AUTO 00000KT 3SM BR BKN003 OVC008 A3003 RMK AO2